Terminal Aerodrome Forecast
Issued by NWS

Home | Current Version | Previous Version | Graphics & Text | Print | Product List | Glossary On
Versions: 1 2 3 4 5 6 7 8 9 10 11 12 13 14 15 16 17 18 19
061
FTUS43 KGRB 262015 AAA
TAFCWA
TAF AMD
KCWA 262015Z 2620/2718 05005KT 6SM -RADZ BR OVC004
     FM270000 VRB03KT 3SM -RADZ BR OVC003
     FM270600 VRB03KT 1SM BR VCSH OVC002
     FM271700 04004KT P6SM OVC003=

USA.gov is the U.S. government's official web portal to all federal, state and local government web resources and services.